Main page
METAR-TAF:

METAR-TAF

Airports :

Buffalo Narrows Airport

Buffalo Narrows, Manitoba, Canada

latitude: 55-50N, longitude: 108-27W, elevation: 434 m

Current weather observation

The report was made 6 hours and 9 minutes ago, at 04:00 UTC
Wind 3 kt from the South/Southeast
Temperature 14°C
Humidity 41%
Pressure 1017 hPa
Visibility: 24.1 km
Few clouds at a height of 9000 ft
Few clouds at a height of 23000 ft

METAR: CYVT 220400Z 16003KT 15SM FEW090 FEW230 14/01 A3004 RMK AC1CI1 AC TR CI TR LAST STFD OBS/NXT 221200 UTC SLP183 DENSITY ALT 1500FT

Time: 05:09 (10:09 UTC)

Forecast

The report was made 9 hours and 31 minutes ago, at 00:38 UTC
Forecast valid from 22 at 01 UTC to 22 at 04 UTC
Wind 5 kt from the Northeast
Visibility: 10 km
Few clouds at a height of 10000 ft

TAF: CYVT 220038Z 2201/2204 05005KT P6SM FEW100 RMK NXT FCST WILL BE ISSUED AT 221345Z

Weather observations and forecasts of more than 4000 airports (METAR and TAF reports).

The available stations are represented by yellow and red dots on the map.

Hover mouse over dot to see the name of the station.

Then click to see weather observations and forecasts.

To change the map : click on the green buttons with a black cross to zoom in, on the green button with a dash to zoom out, or on the green arrows for adjacent maps.


METAR-TAF: